Lafayette, Indiana
Current Conditions -  °F | °C
As of 8:54 PM on Thursday 20 Nov 2014 (Local Time) from KLAF Reporting Station
Clear Clear  
Wind Chill: 16°   Ceiling: Unl
Heat Index: 22°   Visibility: 10mi
Dew Point: 10°   Wind: 5mph
Humidity: 60%   Direction: 290°WNW
Pressure: 30.23"   Gusts: NA
Location:  40.42°N, 86.88°W
Report Text: KLAF 210154Z 29004KT 10SM CLR M06/M12 A3023 RMK AO2 SLP245 T10561122
Loading
Personal Weather Stations






























Interactive Weather Map New forecast layout! Learn more

10-Day Weather Forecast

Advertisements
Track Severe Weather on mobile